Warning: Javascript must be enabled to use all the features on this page!


Page Loading - Please Wait...

Click to hideNews Bulletins

Peak Streamflow for the Nation

USGS 03451000 SWANNANOA RIVER AT BILTMORE, NC

Buncombe County, North Carolina
Hydrologic Unit Code 06010105
Latitude  35°34'06", Longitude  82°32'41" NAD83
Drainage area 130  square miles
Gage datum 1,976.30 feet above NAVD88
Output formats
Table
Graph
Tab-separated file
peakfq (watstore) format
Reselect output format
Water
Year
Date Gage
Height
(feet)
Stream-
flow
(cfs)
1791 1791-04 26.00Bd 40,0002,7,Bd
1796 1796-08 15.00Bd 10,6002,7,Bd
1810 1810 15.00Bm 10,6002,7,Bm
1845 1845-05 18.00Bd 16,4002,7,Bd
1850 1850-08 13.00Bd 7,3002,7,Bd
1852 1852-08 15.00Bd 10,6002,7,Bd
1875 1875-02 17.00Bd 14,4002,7,Bd
1876 1876-06-17 15.00 10,6002,7
1899 1899-03-19 14.00 8,8002,7
1901 1901-05-21 16.00 12,4002,7
1902 1901-12-30 15.00 10,6002,7
1916 1916-07-16 20.70 23,0002,7
1921 1920-12-14 5.05 2,220
1922 1922-01-21 4.00 1,500
1923 1923-05-29 8.20 4,690
1924 1924-01-16 6.20 3,090
1925 1924-12-08 6.00 2,930
1926 1926-01-18 6.10 3,010
1928 1928-08-16 18.74 17,8007
1935 1935-01-09 7.07 3,260
1936 1936-01-19 7.02 3,340
1937 1936-10-16 8.65 4,380
1938 1937-10-19 4.95 1,780
1939 1939-01-30 5.97 2,460
1940 1940-08-13 19.00 18,400
1941 1940-12-28 4.93 1,500
1942 1942-03-09 5.64 1,910
1943 1942-12-29 7.00 2,840
1944 1944-09-30 5.95 2,150
1945 1945-09-17 4.59 1,340
1946 1946-02-10 7.12 2,810
1947 1947-01-20 6.84 2,650
1948 1947-10-17 7.70 3,180
1949 1949-06-16 14.65 9,930
1950 1950-09-09 8.50 3,820
1951 1950-12-07 7.00 2,850
1952 1952-03-23 7.65 3,270
1953 1953-02-21 8.10 3,560
1954 1954-01-22 7.64 3,270
1955 1955-03-22 3.60 805
1956 1956-04-16 4.56 1,320
1957 1957-04-05 10.80 5,340
1958 1958-04-28 5.20 1,770
1959 1959-09-30 8.40 3,760
1960 1960-03-30 5.39 1,880
1961 1961-08-24 7.57 2,900
1962 1961-12-12 6.39 2,190
1963 1963-03-13 11.23 5,260
1964 1964-04-07 7.23 2,700
1965 1964-10-04 11.16 5,210
1966 1966-02-13 8.30 3,230
1967 1967-06-05 8.38 3,280
1968 1968-03-12 8.49 3,340
1969 1968-10-19 5.12 1,830
1970 1969-12-31 3.76 958
1971 1971-06-19 5.98 2,160
1972 1972-06-21 12.10 5,720
1973 1973-05-28 13.30 6,770
1974 1974-04-04 6.94 2,620
1975 1975-03-14 10.75 4,780
1976 1976-05-29 14.19 7,680
1977 1977-04-04 10.61 4,680
1978 1977-11-06 15.12 9,650
1979 1979-03-05 8.14 3,280
1980 1979-11-02 10.44 4,560
1981 1981-05-27 5.84 1,980
1982 1982-02-03 8.07 3,220
1983 1983-03-18 7.46 2,890
1984 1984-02-14 7.83 3,090
1985 1985-02-12 4.84 1,470
1986 1985-11-01 4.86 1,480
1987 1987-03-01 7.25 2,780
1988 1988-04-12 4.11 1,070
1989 1989-05-05 5.96 2,060
1990 1990-03-17 10.15 4,390
1991 1991-03-29 9.93 4,260
1992 1992-04-21 5.96 2,060
1993 1993-03-27 6.93 2,610
1994 1994-08-17 13.28 5,850
1995 1995-01-15 15.79 11,700
1996 1995-10-05 12.56 6,070
1997 1996-12-01 5.59 1,860
1998 1998-01-07 12.17 5,720
1999 1999-07-03 3.74 882
2000 2000-03-20 5.41 1,520
2001 2001-03-29 3.68 726
2002 2002-06-05 3.19 539
2003 2003-05-06 7.16 2,460
2004 2004-09-08 19.22 12,9009
2005 2005-08-22 6.25 1,950
2006 2006-06-26 5.59 1,610
2007 2007-01-01 5.32 1,470
2008 2008-08-27 5.29 1,460
2009 2009-09-20 5.58 1,600
2010 2010-01-24 7.60 2,730
2011 2010-12-01 5.89 1,760
2012 2012-09-18 6.06 2,020
2013 2013-05-06 10.32 4,810
2014 2014-04-29 5.54 1,730
2015 2014-10-15 6.43 2,230
2016 2015-12-29 12.70 6,660
2017 2017-09-12 6.38 2,200
2018 2018-05-30 14.34 8,030
2019 2019-04-19 14.35 8,040
2020 2020-02-06 9.09 3,930
?
  Peak Gage-Height Qualification Codes.
?
  Peak Streamflow Qualification Codes.